createdAt,value
2023-12-29T00:01:55.105Z,38
2023-12-29T00:03:55.234Z,33
2023-12-29T00:05:55.321Z,36
2023-12-29T00:07:55.407Z,35
2023-12-29T00:09:55.494Z,35
2023-12-29T00:11:55.588Z,43
2023-12-29T00:13:55.621Z,46
2023-12-29T00:15:55.775Z,42
2023-12-29T00:17:55.962Z,41
2023-12-29T00:19:56.054Z,39
2023-12-29T00:21:56.151Z,43
2023-12-29T00:23:56.180Z,45
2023-12-29T00:25:56.248Z,51
2023-12-29T00:27:56.387Z,55
2023-12-29T00:29:56.434Z,53
2023-12-29T00:31:56.677Z,60
2023-12-29T00:33:56.709Z,59
2023-12-29T00:35:56.769Z,49
2023-12-29T00:37:56.811Z,51
2023-12-29T00:39:56.964Z,42
2023-12-29T00:41:57.036Z,39
2023-12-29T00:43:57.287Z,40
2023-12-29T00:45:57.293Z,37
2023-12-29T00:47:57.597Z,37
2023-12-29T00:49:57.440Z,36
2023-12-29T00:51:57.560Z,37
2023-12-29T00:53:57.661Z,38
2023-12-29T00:55:57.693Z,39
2023-12-29T00:57:58.088Z,37
2023-12-29T00:59:57.870Z,40
2023-12-29T01:01:58.109Z,51
2023-12-29T01:03:58.207Z,52
2023-12-29T01:05:58.186Z,55
2023-12-29T01:07:58.373Z,63
2023-12-29T01:09:58.396Z,70
2023-12-29T01:11:58.437Z,79
2023-12-29T01:13:58.516Z,75
2023-12-29T01:15:58.664Z,48
2023-12-29T01:17:59.300Z,44
2023-12-29T01:19:58.867Z,36
2023-12-29T01:21:58.909Z,27
2023-12-29T01:23:58.963Z,28
2023-12-29T01:25:59.037Z,26
2023-12-29T01:27:59.328Z,29
2023-12-29T01:29:59.262Z,31
2023-12-29T01:31:59.334Z,32
2023-12-29T01:33:59.537Z,30
2023-12-29T01:36:05.503Z,27
2023-12-29T01:37:59.764Z,28
2023-12-29T01:39:59.737Z,26
2023-12-29T01:41:59.822Z,26
2023-12-29T01:43:59.921Z,26
2023-12-29T01:46:00.616Z,25
2023-12-29T01:48:00.382Z,25
2023-12-29T01:50:00.325Z,27
2023-12-29T01:52:00.299Z,26
2023-12-29T01:54:00.411Z,27
2023-12-29T01:56:02.112Z,26
2023-12-29T01:58:01.054Z,26
2023-12-29T02:00:00.656Z,31
2023-12-29T02:02:00.889Z,25
2023-12-29T02:04:00.902Z,27
2023-12-29T02:06:00.910Z,26
2023-12-29T02:08:01.165Z,21
2023-12-29T02:10:01.106Z,20
2023-12-29T02:12:01.170Z,21
2023-12-29T02:14:01.265Z,22
2023-12-29T02:16:01.451Z,20
2023-12-29T02:18:01.670Z,21
2023-12-29T02:20:01.633Z,22
2023-12-29T02:22:01.595Z,21
2023-12-29T02:24:01.672Z,22
2023-12-29T02:26:01.735Z,27
2023-12-29T02:28:02.022Z,23
2023-12-29T02:30:01.885Z,25
2023-12-29T02:32:01.965Z,27
2023-12-29T02:34:02.256Z,27
2023-12-29T02:36:02.160Z,28
2023-12-29T02:38:02.580Z,26
2023-12-29T02:40:02.413Z,31
2023-12-29T02:42:02.495Z,34
2023-12-29T02:44:02.545Z,37
2023-12-29T02:46:02.660Z,47
2023-12-29T02:48:03.031Z,62
2023-12-29T02:50:03.019Z,92
2023-12-29T02:52:03.000Z,118
2023-12-29T02:54:03.021Z,153
2023-12-29T02:56:03.111Z,137
2023-12-29T02:58:03.517Z,139
2023-12-29T03:00:03.300Z,136
2023-12-29T03:02:03.443Z,115
2023-12-29T03:04:03.535Z,74
2023-12-29T03:06:03.537Z,59
2023-12-29T03:08:04.276Z,53
2023-12-29T03:10:03.955Z,38
2023-12-29T03:12:03.875Z,29
2023-12-29T03:14:03.944Z,24
2023-12-29T03:16:04.021Z,26
2023-12-29T03:18:04.489Z,25
2023-12-29T03:20:04.305Z,24
2023-12-29T03:22:04.353Z,25
2023-12-29T03:24:04.375Z,25
2023-12-29T03:26:04.469Z,20
2023-12-29T03:28:05.066Z,19
2023-12-29T03:30:04.724Z,18
2023-12-29T03:32:04.708Z,16
2023-12-29T03:34:04.985Z,16
2023-12-29T03:36:04.895Z,18
2023-12-29T03:38:04.993Z,17
2023-12-29T03:40:05.251Z,19
2023-12-29T03:42:05.167Z,19
2023-12-29T03:44:05.258Z,19
2023-12-29T03:46:05.452Z,19
2023-12-29T03:48:05.922Z,18
2023-12-29T03:50:05.551Z,20
2023-12-29T03:52:05.717Z,18
2023-12-29T03:54:05.686Z,20
2023-12-29T03:56:05.784Z,21
2023-12-29T03:58:05.929Z,21
2023-12-29T04:00:05.994Z,22
2023-12-29T04:02:06.096Z,21
2023-12-29T04:04:06.233Z,22
2023-12-29T04:06:06.270Z,23
2023-12-29T04:08:06.368Z,22
2023-12-29T04:10:06.563Z,25
2023-12-29T04:12:06.527Z,27
2023-12-29T04:14:06.604Z,26
2023-12-29T04:16:06.750Z,29
2023-12-29T04:18:06.930Z,30
2023-12-29T04:20:06.892Z,33
2023-12-29T04:22:07.091Z,47
2023-12-29T04:24:07.065Z,39
2023-12-29T04:26:07.128Z,46
2023-12-29T04:28:07.242Z,40
2023-12-29T04:30:07.320Z,42
2023-12-29T04:32:07.513Z,42
2023-12-29T04:34:07.587Z,49
2023-12-29T04:36:07.642Z,44
2023-12-29T04:38:07.747Z,43
2023-12-29T04:40:07.858Z,39
2023-12-29T04:42:07.868Z,29
2023-12-29T04:44:08.001Z,25
2023-12-29T04:46:08.096Z,25
2023-12-29T04:48:08.165Z,22
2023-12-29T04:50:08.314Z,24
2023-12-29T04:52:08.330Z,15
2023-12-29T04:54:08.375Z,18
2023-12-29T04:56:08.468Z,20
2023-12-29T04:58:08.574Z,21
2023-12-29T05:00:08.662Z,21
2023-12-29T05:02:08.740Z,19
2023-12-29T05:04:08.878Z,20
2023-12-29T05:06:08.905Z,28
2023-12-29T05:08:09.159Z,27
2023-12-29T05:10:09.168Z,29
2023-12-29T05:12:09.184Z,25
2023-12-29T05:14:09.252Z,22
2023-12-29T05:16:09.431Z,24
2023-12-29T05:18:09.549Z,23
2023-12-29T05:20:09.567Z,24
2023-12-29T05:22:09.793Z,25
2023-12-29T05:24:09.714Z,24
2023-12-29T05:26:09.821Z,26
2023-12-29T05:28:09.917Z,30
2023-12-29T05:30:09.990Z,35
2023-12-29T05:32:10.082Z,60
2023-12-29T05:34:10.205Z,60
2023-12-29T05:36:10.217Z,53
2023-12-29T05:38:10.302Z,54
2023-12-29T05:40:40.429Z,51
2023-12-29T05:42:40.603Z,48
2023-12-29T05:44:40.659Z,45
2023-12-29T05:46:40.789Z,44
2023-12-29T05:52:41.117Z,49
2023-12-29T05:54:41.303Z,46
2023-12-29T05:56:41.365Z,42
2023-12-29T05:58:41.484Z,40
2023-12-29T06:00:41.603Z,39
2023-12-29T06:02:41.720Z,39
2023-12-29T06:04:41.830Z,41
2023-12-29T06:06:41.963Z,39
2023-12-29T06:08:42.089Z,35
2023-12-29T06:10:42.161Z,37
2023-12-29T06:12:42.290Z,37
2023-12-29T06:14:42.415Z,36
2023-12-29T06:16:42.507Z,38
2023-12-29T06:18:42.761Z,37
2023-12-29T06:20:42.759Z,38
2023-12-29T06:22:42.873Z,36
2023-12-29T06:24:43.016Z,36
2023-12-29T06:26:43.071Z,34
2023-12-29T06:28:43.207Z,34
2023-12-29T06:30:43.502Z,35
2023-12-29T06:32:43.532Z,37
2023-12-29T06:34:43.684Z,36
2023-12-29T06:36:43.696Z,40
2023-12-29T06:38:43.808Z,41
2023-12-29T06:40:43.904Z,39
2023-12-29T06:42:44.062Z,37
2023-12-29T06:44:44.155Z,42
2023-12-29T06:46:44.276Z,52
2023-12-29T06:48:44.686Z,53
2023-12-29T06:50:44.527Z,59
2023-12-29T06:52:44.631Z,59
2023-12-29T06:54:44.762Z,50
2023-12-29T06:56:44.842Z,44
2023-12-29T06:58:44.990Z,38
2023-12-29T07:00:45.443Z,36
2023-12-29T07:02:45.213Z,34
2023-12-29T07:04:45.324Z,34
2023-12-29T07:06:45.531Z,34
2023-12-29T07:08:45.537Z,38
2023-12-29T07:10:45.688Z,40
2023-12-29T07:12:45.917Z,45
2023-12-29T07:14:45.941Z,56
2023-12-29T07:16:46.036Z,47
2023-12-29T07:18:46.355Z,49
2023-12-29T07:20:46.264Z,55
2023-12-29T07:22:46.397Z,56
2023-12-29T07:24:46.520Z,60
2023-12-29T07:26:46.639Z,52
2023-12-29T07:28:46.740Z,74
2023-12-29T07:30:46.911Z,66
2023-12-29T07:32:47.001Z,70
2023-12-29T07:34:47.242Z,75
2023-12-29T07:36:47.326Z,74
2023-12-29T07:38:47.325Z,69
2023-12-29T07:40:47.442Z,68
2023-12-29T07:42:47.544Z,67
2023-12-29T07:44:47.667Z,85
2023-12-29T07:46:47.769Z,109
2023-12-29T07:48:48.012Z,165
2023-12-29T07:50:47.964Z,147
2023-12-29T07:52:48.064Z,131
2023-12-29T07:54:48.255Z,112
2023-12-29T07:56:48.323Z,81
2023-12-29T07:58:50.282Z,77
2023-12-29T08:00:48.676Z,82
2023-12-29T08:02:48.681Z,107
2023-12-29T08:04:48.847Z,123
2023-12-29T08:06:49.008Z,149
2023-12-29T08:08:49.044Z,154
2023-12-29T08:10:49.159Z,150
2023-12-29T08:12:49.298Z,153
2023-12-29T08:14:49.413Z,155
2023-12-29T08:16:49.508Z,171
2023-12-29T08:18:49.648Z,160
2023-12-29T08:20:49.776Z,156
2023-12-29T08:22:49.849Z,147
2023-12-29T08:24:50.056Z,144
2023-12-29T08:26:50.069Z,137
2023-12-29T08:28:50.180Z,131
2023-12-29T08:30:50.400Z,131
2023-12-29T08:32:50.480Z,130
2023-12-29T08:34:50.847Z,150
2023-12-29T08:36:50.684Z,165
2023-12-29T08:38:50.745Z,200
2023-12-29T08:40:50.871Z,198
2023-12-29T08:42:51.007Z,178
2023-12-29T08:44:51.107Z,179
2023-12-29T08:46:51.201Z,188
2023-12-29T08:48:51.382Z,180
2023-12-29T08:50:51.918Z,188
2023-12-29T08:52:51.571Z,178
2023-12-29T08:54:51.692Z,147
2023-12-29T08:56:51.771Z,142
2023-12-29T08:58:51.875Z,143
2023-12-29T09:00:52.081Z,142
2023-12-29T09:02:52.110Z,151
2023-12-29T09:04:52.232Z,138
2023-12-29T09:06:52.495Z,132
2023-12-29T09:08:52.485Z,136
2023-12-29T09:10:52.582Z,119
2023-12-29T09:12:52.722Z,134
2023-12-29T09:14:52.831Z,135
2023-12-29T09:16:52.953Z,138
2023-12-29T09:18:53.060Z,136
2023-12-29T09:20:53.238Z,130
2023-12-29T09:22:53.299Z,136
2023-12-29T09:24:53.476Z,120
2023-12-29T09:26:53.527Z,114
2023-12-29T09:28:53.620Z,113
2023-12-29T09:30:53.810Z,125
2023-12-29T09:32:53.874Z,119
2023-12-29T09:34:54.009Z,114
2023-12-29T09:36:54.077Z,125
2023-12-29T09:38:54.153Z,123
2023-12-29T09:40:54.262Z,119
2023-12-29T09:42:54.386Z,120
2023-12-29T09:44:54.527Z,116
2023-12-29T09:46:54.616Z,100
2023-12-29T09:48:54.766Z,103
2023-12-29T09:50:54.813Z,101
2023-12-29T09:52:54.929Z,101
2023-12-29T09:54:55.063Z,90
2023-12-29T09:56:55.116Z,99
2023-12-29T09:58:55.234Z,92
2023-12-29T10:00:55.444Z,91
2023-12-29T10:02:55.460Z,107
2023-12-29T10:04:55.648Z,81
2023-12-29T10:06:55.831Z,80
2023-12-29T10:08:55.844Z,87
2023-12-29T10:10:55.916Z,85
2023-12-29T10:12:56.092Z,74
2023-12-29T10:14:56.120Z,146
2023-12-29T10:16:56.222Z,89
2023-12-29T10:18:56.360Z,126
2023-12-29T10:20:56.433Z,92
2023-12-29T10:22:56.534Z,119
2023-12-29T10:24:56.645Z,147
2023-12-29T10:26:56.777Z,80
2023-12-29T10:28:56.936Z,182
2023-12-29T10:30:57.164Z,175
2023-12-29T10:32:57.297Z,145
2023-12-29T10:34:57.206Z,101
2023-12-29T10:36:57.344Z,126
2023-12-29T10:38:57.415Z,472
2023-12-29T10:40:57.512Z,183
2023-12-29T10:42:57.770Z,289
2023-12-29T10:44:57.712Z,119
2023-12-29T10:46:57.833Z,117
2023-12-29T10:48:58.026Z,148
2023-12-29T10:50:58.096Z,209
2023-12-29T10:52:58.491Z,85
2023-12-29T10:54:58.290Z,119
2023-12-29T10:56:58.336Z,78
2023-12-29T10:58:58.449Z,72
2023-12-29T11:00:58.639Z,82
2023-12-29T11:02:58.904Z,58
2023-12-29T11:04:58.820Z,81
2023-12-29T11:06:58.958Z,99
2023-12-29T11:08:59.026Z,71
2023-12-29T11:10:59.126Z,96
2023-12-29T11:12:59.574Z,96
2023-12-29T11:14:59.302Z,76
2023-12-29T11:16:59.435Z,70
2023-12-29T11:18:59.596Z,81
2023-12-29T11:20:59.637Z,56
2023-12-29T11:23:00.090Z,185
2023-12-29T11:24:59.961Z,75
2023-12-29T11:26:59.944Z,74
2023-12-29T11:29:00.042Z,65
2023-12-29T11:31:00.249Z,65
2023-12-29T11:33:00.666Z,253
2023-12-29T11:35:00.490Z,79
2023-12-29T11:37:00.469Z,57
2023-12-29T11:39:00.554Z,55
2023-12-29T11:41:00.830Z,53
2023-12-29T11:43:01.002Z,55
2023-12-29T11:45:00.847Z,59
2023-12-29T11:47:03.388Z,49
2023-12-29T11:49:01.027Z,55
2023-12-29T11:51:01.085Z,49
2023-12-29T11:53:01.582Z,48
2023-12-29T11:55:01.337Z,56
2023-12-29T11:57:01.415Z,76
2023-12-29T11:59:01.478Z,57
2023-12-29T12:01:01.703Z,64
2023-12-29T12:03:02.004Z,77
2023-12-29T12:05:01.759Z,78
2023-12-29T12:07:01.884Z,77
2023-12-29T12:09:01.990Z,89
2023-12-29T12:11:02.083Z,120
2023-12-29T12:13:02.493Z,130
2023-12-29T12:15:02.267Z,240
2023-12-29T12:17:02.358Z,93
2023-12-29T12:19:02.738Z,83
2023-12-29T12:21:02.663Z,143
2023-12-29T12:23:03.148Z,119
2023-12-29T12:25:02.817Z,137
2023-12-29T12:27:02.857Z,87
2023-12-29T12:29:03.106Z,68
2023-12-29T12:31:03.152Z,100
2023-12-29T12:33:03.443Z,96
2023-12-29T12:35:03.353Z,92
2023-12-29T12:37:03.360Z,83
2023-12-29T12:39:03.429Z,73
2023-12-29T12:41:03.562Z,61
2023-12-29T12:43:04.122Z,94
2023-12-29T12:45:03.727Z,60
2023-12-29T12:47:03.822Z,104
2023-12-29T12:49:04.013Z,95
2023-12-29T12:51:03.965Z,80
2023-12-29T12:53:04.189Z,100
2023-12-29T12:55:04.197Z,101
2023-12-29T12:57:04.242Z,91
2023-12-29T12:59:04.351Z,79
2023-12-29T13:01:04.517Z,79
2023-12-29T13:03:04.725Z,103
2023-12-29T13:05:04.646Z,70
2023-12-29T13:07:04.709Z,109
2023-12-29T13:09:04.778Z,91
2023-12-29T13:11:04.899Z,78
2023-12-29T13:13:05.214Z,128
2023-12-29T13:15:05.091Z,90
2023-12-29T13:17:05.179Z,106
2023-12-29T13:19:05.339Z,101
2023-12-29T13:21:05.501Z,138
2023-12-29T13:23:05.425Z,127
2023-12-29T13:25:05.568Z,97
2023-12-29T13:27:05.624Z,94
2023-12-29T13:29:05.718Z,125
2023-12-29T13:31:05.914Z,100
2023-12-29T13:33:06.262Z,89
2023-12-29T13:35:06.103Z,69
2023-12-29T13:37:06.140Z,90
2023-12-29T13:39:06.173Z,66
2023-12-29T13:41:06.255Z,61
2023-12-29T13:43:06.620Z,68
2023-12-29T13:45:06.454Z,65
2023-12-29T13:47:06.605Z,63
2023-12-29T13:49:06.715Z,55
2023-12-29T13:51:06.685Z,60
2023-12-29T13:53:06.803Z,65
2023-12-29T13:55:06.980Z,63
2023-12-29T13:57:06.971Z,71
2023-12-29T13:59:07.061Z,79
2023-12-29T14:01:07.211Z,90
2023-12-29T14:03:07.336Z,115
2023-12-29T14:05:07.402Z,109
2023-12-29T14:07:37.462Z,106
2023-12-29T14:09:37.526Z,108
2023-12-29T14:11:37.676Z,108
2023-12-29T14:13:37.760Z,99
2023-12-29T14:15:38.002Z,96
2023-12-29T14:17:38.050Z,89
2023-12-29T14:19:38.299Z,78
2023-12-29T14:21:38.288Z,71
2023-12-29T14:23:38.361Z,62
2023-12-29T14:25:38.510Z,59
2023-12-29T14:27:38.614Z,54
2023-12-29T14:29:38.705Z,49
2023-12-29T14:31:38.805Z,49
2023-12-29T14:33:39.039Z,46
2023-12-29T14:35:39.009Z,48
2023-12-29T14:37:39.114Z,58
2023-12-29T14:39:39.271Z,51
2023-12-29T14:41:39.371Z,49
2023-12-29T14:43:39.478Z,45
2023-12-29T14:45:39.645Z,45
2023-12-29T14:47:39.805Z,47
2023-12-29T14:49:39.827Z,47
2023-12-29T14:51:39.991Z,50
2023-12-29T14:53:40.000Z,48
2023-12-29T14:55:40.118Z,49
2023-12-29T14:57:40.252Z,44
2023-12-29T14:59:40.323Z,40
2023-12-29T15:01:40.542Z,58
2023-12-29T15:03:40.668Z,71
2023-12-29T15:05:40.720Z,56
2023-12-29T15:07:40.780Z,74
2023-12-29T15:09:40.914Z,83
2023-12-29T15:11:40.994Z,50
2023-12-29T15:13:41.088Z,76
2023-12-29T15:15:41.320Z,54
2023-12-29T15:17:41.655Z,40
2023-12-29T15:19:41.467Z,37
2023-12-29T15:21:41.578Z,40
2023-12-29T15:23:41.637Z,39
2023-12-29T15:25:41.852Z,44
2023-12-29T15:27:41.893Z,43
2023-12-29T15:29:41.944Z,40
2023-12-29T15:31:42.126Z,35
2023-12-29T15:33:42.317Z,35
2023-12-29T15:35:42.526Z,35
2023-12-29T15:37:42.400Z,37
2023-12-29T15:39:42.837Z,58
2023-12-29T15:41:42.609Z,55
2023-12-29T15:43:42.720Z,68
2023-12-29T15:45:42.828Z,38
2023-12-29T15:47:43.019Z,44
2023-12-29T15:49:43.155Z,40
2023-12-29T15:51:43.148Z,30
2023-12-29T15:53:43.214Z,25
2023-12-29T15:55:43.352Z,35
2023-12-29T15:57:43.540Z,29
2023-12-29T15:59:43.557Z,26
2023-12-29T16:01:43.847Z,28
2023-12-29T16:03:43.832Z,27
2023-12-29T16:05:43.925Z,26
2023-12-29T16:07:43.945Z,21
2023-12-29T16:11:44.142Z,26
2023-12-29T16:13:44.242Z,28
2023-12-29T16:15:44.394Z,22
2023-12-29T16:17:44.451Z,21
2023-12-29T16:19:44.649Z,22
2023-12-29T16:21:44.726Z,26
2023-12-29T16:23:44.781Z,25
2023-12-29T16:25:44.908Z,27
2023-12-29T16:27:44.994Z,35
2023-12-29T16:29:45.082Z,31
2023-12-29T16:31:45.557Z,27
2023-12-29T16:33:45.401Z,28
2023-12-29T16:35:45.349Z,29
2023-12-29T16:37:45.449Z,29
2023-12-29T16:39:45.642Z,29
2023-12-29T16:41:45.683Z,34
2023-12-29T16:43:45.760Z,40
2023-12-29T16:45:45.862Z,56
2023-12-29T16:47:46.038Z,43
2023-12-29T16:49:46.118Z,36
2023-12-29T16:51:46.281Z,38
2023-12-29T16:53:46.247Z,39
2023-12-29T16:55:46.380Z,38
2023-12-29T16:57:46.488Z,34
2023-12-29T16:59:46.527Z,35
2023-12-29T17:01:46.754Z,32
2023-12-29T17:03:46.740Z,37
2023-12-29T17:05:46.864Z,40
2023-12-29T17:07:46.907Z,47
2023-12-29T17:09:47.073Z,49
2023-12-29T17:11:47.141Z,53
2023-12-29T17:13:47.263Z,53
2023-12-29T17:15:47.347Z,52
2023-12-29T17:17:47.444Z,60
2023-12-29T17:19:47.542Z,70
2023-12-29T17:21:47.626Z,75
2023-12-29T17:23:47.735Z,75
2023-12-29T17:25:54.350Z,66
2023-12-29T17:27:47.908Z,78
2023-12-29T17:29:48.018Z,72
2023-12-29T17:31:48.098Z,71
2023-12-29T17:33:48.326Z,89
2023-12-29T17:35:48.344Z,77
2023-12-29T17:37:48.495Z,69
2023-12-29T17:39:48.585Z,64
2023-12-29T17:41:48.651Z,61
2023-12-29T17:43:48.798Z,58
2023-12-29T17:45:48.890Z,61
2023-12-29T17:47:48.964Z,56
2023-12-29T17:49:49.204Z,62
2023-12-29T17:51:49.101Z,71
2023-12-29T17:53:49.205Z,97
2023-12-29T17:55:49.254Z,122
2023-12-29T17:57:49.399Z,132
2023-12-29T17:59:49.461Z,127
2023-12-29T18:01:49.763Z,125
2023-12-29T18:03:49.761Z,138
2023-12-29T18:05:49.832Z,129
2023-12-29T18:07:49.901Z,153
2023-12-29T18:09:49.976Z,152
2023-12-29T18:11:50.017Z,102
2023-12-29T18:13:50.134Z,86
2023-12-29T18:15:50.299Z,73
2023-12-29T18:17:50.397Z,58
2023-12-29T18:19:50.500Z,63
2023-12-29T18:21:50.532Z,92
2023-12-29T18:23:50.613Z,77
2023-12-29T18:25:50.705Z,75
2023-12-29T18:27:50.817Z,72
2023-12-29T18:29:50.876Z,157
2023-12-29T18:32:17.630Z,92
2023-12-29T18:33:51.153Z,91
2023-12-29T18:35:51.173Z,94
2023-12-29T18:37:51.266Z,109
2023-12-29T18:39:51.380Z,111
2023-12-29T18:41:51.446Z,130
2023-12-29T18:43:51.540Z,92
2023-12-29T18:45:51.662Z,96
2023-12-29T18:47:51.888Z,121
2023-12-29T18:49:52.203Z,136
2023-12-29T18:51:51.921Z,156
2023-12-29T18:53:52.024Z,162
2023-12-29T18:55:52.086Z,144
2023-12-29T18:57:52.225Z,142
2023-12-29T18:59:52.289Z,154
2023-12-29T19:01:53.511Z,169
2023-12-29T19:03:52.635Z,210
2023-12-29T19:05:52.570Z,191
2023-12-29T19:07:52.633Z,192
2023-12-29T19:09:52.839Z,196
2023-12-29T19:11:52.832Z,193
2023-12-29T19:13:52.932Z,180
2023-12-29T19:15:53.156Z,178
2023-12-29T19:17:53.164Z,178
2023-12-29T19:19:53.214Z,182
2023-12-29T19:21:53.309Z,165
2023-12-29T19:23:53.426Z,153
2023-12-29T19:25:53.464Z,149
2023-12-29T19:27:53.578Z,140
2023-12-29T19:29:53.622Z,132
2023-12-29T19:31:53.800Z,131
2023-12-29T19:33:53.914Z,123
2023-12-29T19:35:53.900Z,124
2023-12-29T19:37:53.981Z,124
2023-12-29T19:39:54.089Z,96
2023-12-29T19:41:54.127Z,96
2023-12-29T19:43:54.242Z,90
2023-12-29T19:45:54.393Z,106
2023-12-29T19:47:54.469Z,93
2023-12-29T19:49:54.518Z,87
2023-12-29T19:51:54.661Z,79
2023-12-29T19:53:54.679Z,80
2023-12-29T19:55:54.760Z,75
2023-12-29T19:57:54.863Z,85
2023-12-29T19:59:54.916Z,74
2023-12-29T20:01:55.069Z,71
2023-12-29T20:03:55.153Z,73
2023-12-29T20:05:55.372Z,79
2023-12-29T20:07:55.280Z,77
2023-12-29T20:09:55.509Z,73
2023-12-29T20:11:55.476Z,70
2023-12-29T20:13:55.540Z,68
2023-12-29T20:15:55.681Z,83
2023-12-29T20:17:55.830Z,92
2023-12-29T20:19:55.827Z,57
2023-12-29T20:21:55.916Z,52
2023-12-29T20:23:56.044Z,51
2023-12-29T20:25:56.077Z,53
2023-12-29T20:27:56.206Z,51
2023-12-29T20:29:56.320Z,51
2023-12-29T20:31:56.394Z,50
2023-12-29T20:33:56.579Z,54
2023-12-29T20:35:56.542Z,50
2023-12-29T20:37:56.635Z,58
2023-12-29T20:39:56.724Z,57
2023-12-29T20:41:56.803Z,59
2023-12-29T20:43:56.884Z,65
2023-12-29T20:48:27.238Z,57
2023-12-29T20:50:27.263Z,80
2023-12-29T20:52:27.450Z,69
2023-12-29T20:54:27.517Z,66
2023-12-29T20:56:27.603Z,65
2023-12-29T20:58:27.796Z,61
2023-12-29T21:00:27.808Z,66
2023-12-29T21:02:27.941Z,62
2023-12-29T21:04:28.142Z,57
2023-12-29T21:06:28.131Z,51
2023-12-29T21:08:28.265Z,54
2023-12-29T21:10:28.518Z,50
2023-12-29T21:12:28.487Z,61
2023-12-29T21:14:28.623Z,67
2023-12-29T21:16:28.856Z,99
2023-12-29T21:18:28.902Z,90
2023-12-29T21:20:28.970Z,84
2023-12-29T21:22:29.184Z,79
2023-12-29T21:24:29.193Z,75
2023-12-29T21:26:29.281Z,70
2023-12-29T21:28:29.491Z,54
2023-12-29T21:30:29.848Z,50
2023-12-29T21:32:29.724Z,48
2023-12-29T21:34:29.926Z,51
2023-12-29T21:36:29.919Z,47
2023-12-29T21:38:29.977Z,43
2023-12-29T21:40:30.148Z,42
2023-12-29T21:42:30.235Z,41
2023-12-29T21:44:30.324Z,60
2023-12-29T21:46:30.514Z,53
2023-12-29T21:48:30.694Z,51
2023-12-29T21:50:30.693Z,50
2023-12-29T21:52:30.875Z,56
2023-12-29T21:54:30.907Z,65
2023-12-29T21:56:31.012Z,71
2023-12-29T21:58:31.183Z,67
2023-12-29T22:00:31.268Z,67
2023-12-29T22:02:31.354Z,61
2023-12-29T22:04:31.502Z,63
2023-12-29T22:06:31.587Z,60
2023-12-29T22:08:31.716Z,56
2023-12-29T22:10:31.825Z,76
2023-12-29T22:12:31.930Z,60
2023-12-29T22:14:32.014Z,58
2023-12-29T22:16:32.170Z,55
2023-12-29T22:18:32.362Z,64
2023-12-29T22:20:32.353Z,73
2023-12-29T22:22:32.644Z,82
2023-12-29T22:24:32.574Z,63
2023-12-29T22:26:32.697Z,61
2023-12-29T22:28:32.803Z,59
2023-12-29T22:30:32.954Z,60
2023-12-29T22:32:33.117Z,61
2023-12-29T22:34:33.290Z,74
2023-12-29T22:36:33.277Z,90
2023-12-29T22:38:33.429Z,116
2023-12-29T22:40:33.538Z,147
2023-12-29T22:42:33.597Z,169
2023-12-29T22:44:33.720Z,160
2023-12-29T22:46:34.049Z,176
2023-12-29T22:48:34.062Z,162
2023-12-29T22:50:34.068Z,159
2023-12-29T22:52:34.284Z,158
2023-12-29T22:54:34.321Z,149
2023-12-29T22:56:34.414Z,138
2023-12-29T22:58:34.534Z,139
2023-12-29T23:00:34.691Z,133
2023-12-29T23:02:34.876Z,131
2023-12-29T23:04:34.886Z,127
2023-12-29T23:06:35.000Z,138
2023-12-29T23:08:35.094Z,130
2023-12-29T23:10:35.236Z,140
2023-12-29T23:12:35.378Z,158
2023-12-29T23:14:35.536Z,166
2023-12-29T23:16:35.641Z,165
2023-12-29T23:18:35.721Z,158
2023-12-29T23:20:35.782Z,158
2023-12-29T23:22:35.899Z,162
2023-12-29T23:24:36.092Z,168
2023-12-29T23:26:36.131Z,145
2023-12-29T23:28:36.299Z,106
2023-12-29T23:30:36.392Z,107
2023-12-29T23:32:36.472Z,98
2023-12-29T23:34:36.737Z,102
2023-12-29T23:36:36.789Z,91
2023-12-29T23:38:36.816Z,75
2023-12-29T23:40:36.942Z,68
2023-12-29T23:42:36.997Z,69
2023-12-29T23:44:37.114Z,67
2023-12-29T23:46:37.292Z,66
2023-12-29T23:48:37.472Z,67
2023-12-29T23:50:37.504Z,69
2023-12-29T23:52:37.567Z,70
2023-12-29T23:54:37.688Z,66
2023-12-29T23:56:37.868Z,67
